sensor_id;sensor_type;location;lat;lon;timestamp;P1;durP1;ratioP1;P2;durP2;ratioP2
72864;SDS011;61000;48.120;11.548;2022-11-14T00:01:17;25.65;;;12.52;;
72864;SDS011;61000;48.120;11.548;2022-11-14T00:04:03;14.52;;;11.15;;
72864;SDS011;61000;48.120;11.548;2022-11-14T00:06:48;22.02;;;11.68;;
72864;SDS011;61000;48.120;11.548;2022-11-14T00:09:35;28.08;;;11.43;;
72864;SDS011;61000;48.120;11.548;2022-11-14T00:12:23;30.10;;;10.80;;
72864;SDS011;61000;48.120;11.548;2022-11-14T00:15:08;27.48;;;11.80;;
72864;SDS011;61000;48.120;11.548;2022-11-14T00:17:55;20.67;;;10.52;;
72864;SDS011;61000;48.120;11.548;2022-11-14T00:20:40;32.20;;;11.23;;
72864;SDS011;61000;48.120;11.548;2022-11-14T00:23:26;26.33;;;11.65;;
72864;SDS011;61000;48.120;11.548;2022-11-14T00:26:12;27.50;;;11.40;;
72864;SDS011;61000;48.120;11.548;2022-11-14T00:28:58;16.77;;;10.65;;
72864;SDS011;61000;48.120;11.548;2022-11-14T00:31:44;39.80;;;12.00;;
72864;SDS011;61000;48.120;11.548;2022-11-14T00:34:29;17.23;;;10.98;;
72864;SDS011;61000;48.120;11.548;2022-11-14T00:37:15;27.25;;;11.75;;
72864;SDS011;61000;48.120;11.548;2022-11-14T00:40:00;31.65;;;12.30;;
72864;SDS011;61000;48.120;11.548;2022-11-14T00:42:47;48.05;;;11.63;;
72864;SDS011;61000;48.120;11.548;2022-11-14T00:45:33;23.42;;;11.38;;
72864;SDS011;61000;48.120;11.548;2022-11-14T00:48:18;23.08;;;11.77;;
72864;SDS011;61000;48.120;11.548;2022-11-14T00:51:04;19.40;;;12.68;;
72864;SDS011;61000;48.120;11.548;2022-11-14T00:53:49;27.35;;;12.68;;
72864;SDS011;61000;48.120;11.548;2022-11-14T00:56:35;23.45;;;12.05;;
72864;SDS011;61000;48.120;11.548;2022-11-14T00:59:22;20.38;;;12.68;;
72864;SDS011;61000;48.120;11.548;2022-11-14T01:02:07;18.98;;;11.15;;
72864;SDS011;61000;48.120;11.548;2022-11-14T01:04:53;38.63;;;13.10;;
72864;SDS011;61000;48.120;11.548;2022-11-14T01:07:38;30.77;;;12.68;;
72864;SDS011;61000;48.120;11.548;2022-11-14T01:10:24;52.67;;;13.30;;
72864;SDS011;61000;48.120;11.548;2022-11-14T01:13:09;21.05;;;12.25;;
72864;SDS011;61000;48.120;11.548;2022-11-14T01:15:59;20.77;;;12.35;;
72864;SDS011;61000;48.120;11.548;2022-11-14T01:18:44;18.63;;;12.50;;
72864;SDS011;61000;48.120;11.548;2022-11-14T01:21:30;51.58;;;13.13;;
72864;SDS011;61000;48.120;11.548;2022-11-14T01:24:15;20.02;;;12.35;;
72864;SDS011;61000;48.120;11.548;2022-11-14T01:27:00;59.83;;;13.23;;
72864;SDS011;61000;48.120;11.548;2022-11-14T01:29:46;27.35;;;10.00;;
72864;SDS011;61000;48.120;11.548;2022-11-14T01:32:33;17.92;;;10.07;;
72864;SDS011;61000;48.120;11.548;2022-11-14T01:35:19;25.08;;;10.10;;
72864;SDS011;61000;48.120;11.548;2022-11-14T01:38:04;21.08;;;10.40;;
72864;SDS011;61000;48.120;11.548;2022-11-14T01:40:50;19.25;;;10.23;;
72864;SDS011;61000;48.120;11.548;2022-11-14T01:43:36;14.95;;;9.55;;
72864;SDS011;61000;48.120;11.548;2022-11-14T01:46:22;14.48;;;9.70;;
72864;SDS011;61000;48.120;11.548;2022-11-14T01:49:14;11.98;;;8.90;;
72864;SDS011;61000;48.120;11.548;2022-11-14T01:52:03;26.50;;;10.30;;
72864;SDS011;61000;48.120;11.548;2022-11-14T01:54:52;25.67;;;11.00;;
72864;SDS011;61000;48.120;11.548;2022-11-14T01:57:42;37.53;;;11.50;;
72864;SDS011;61000;48.120;11.548;2022-11-14T02:00:30;17.25;;;9.90;;
72864;SDS011;61000;48.120;11.548;2022-11-14T02:03:16;27.38;;;11.20;;
72864;SDS011;61000;48.120;11.548;2022-11-14T02:06:03;20.35;;;11.27;;
72864;SDS011;61000;48.120;11.548;2022-11-14T02:08:52;21.88;;;11.10;;
72864;SDS011;61000;48.120;11.548;2022-11-14T02:11:39;16.40;;;10.05;;
72864;SDS011;61000;48.120;11.548;2022-11-14T02:14:27;19.15;;;11.43;;
72864;SDS011;61000;48.120;11.548;2022-11-14T02:17:14;17.13;;;10.88;;
72864;SDS011;61000;48.120;11.548;2022-11-14T02:20:07;20.45;;;10.55;;
72864;SDS011;61000;48.120;11.548;2022-11-14T02:23:00;15.40;;;10.40;;
72864;SDS011;61000;48.120;11.548;2022-11-14T02:25:46;18.45;;;11.88;;
72864;SDS011;61000;48.120;11.548;2022-11-14T02:28:31;18.20;;;11.20;;
72864;SDS011;61000;48.120;11.548;2022-11-14T02:31:17;15.70;;;10.55;;
72864;SDS011;61000;48.120;11.548;2022-11-14T02:34:02;15.07;;;9.80;;
72864;SDS011;61000;48.120;11.548;2022-11-14T02:36:49;12.65;;;8.77;;
72864;SDS011;61000;48.120;11.548;2022-11-14T02:39:35;12.27;;;8.85;;
72864;SDS011;61000;48.120;11.548;2022-11-14T02:42:20;11.82;;;8.93;;
72864;SDS011;61000;48.120;11.548;2022-11-14T02:45:06;12.73;;;8.48;;
72864;SDS011;61000;48.120;11.548;2022-11-14T02:47:52;9.15;;;7.38;;
72864;SDS011;61000;48.120;11.548;2022-11-14T02:50:38;11.02;;;8.38;;
72864;SDS011;61000;48.120;11.548;2022-11-14T02:53:25;9.80;;;7.22;;
72864;SDS011;61000;48.120;11.548;2022-11-14T02:56:10;9.88;;;7.53;;
72864;SDS011;61000;48.120;11.548;2022-11-14T02:58:56;10.70;;;7.72;;
72864;SDS011;61000;48.120;11.548;2022-11-14T03:01:42;8.90;;;7.68;;
72864;SDS011;61000;48.120;11.548;2022-11-14T03:04:27;10.75;;;7.35;;
72864;SDS011;61000;48.120;11.548;2022-11-14T03:07:13;10.10;;;7.70;;
72864;SDS011;61000;48.120;11.548;2022-11-14T03:09:59;9.80;;;7.85;;
72864;SDS011;61000;48.120;11.548;2022-11-14T03:12:45;9.45;;;7.93;;
72864;SDS011;61000;48.120;11.548;2022-11-14T03:15:31;10.48;;;7.85;;
72864;SDS011;61000;48.120;11.548;2022-11-14T03:18:20;11.93;;;7.78;;
72864;SDS011;61000;48.120;11.548;2022-11-14T03:21:06;9.93;;;8.15;;
72864;SDS011;61000;48.120;11.548;2022-11-14T03:23:52;9.48;;;7.68;;
72864;SDS011;61000;48.120;11.548;2022-11-14T03:26:39;9.23;;;7.88;;
72864;SDS011;61000;48.120;11.548;2022-11-14T03:29:24;10.18;;;7.68;;
72864;SDS011;61000;48.120;11.548;2022-11-14T03:32:10;9.65;;;7.38;;
72864;SDS011;61000;48.120;11.548;2022-11-14T03:34:55;13.32;;;8.85;;
72864;SDS011;61000;48.120;11.548;2022-11-14T03:37:41;11.02;;;8.00;;
72864;SDS011;61000;48.120;11.548;2022-11-14T03:50:49;9.98;;;8.13;;
72864;SDS011;61000;48.120;11.548;2022-11-14T03:53:35;9.57;;;7.85;;
72864;SDS011;61000;48.120;11.548;2022-11-14T03:56:20;10.05;;;8.10;;
72864;SDS011;61000;48.120;11.548;2022-11-14T03:59:06;10.80;;;8.40;;
72864;SDS011;61000;48.120;11.548;2022-11-14T04:01:52;12.07;;;8.10;;
72864;SDS011;61000;48.120;11.548;2022-11-14T04:04:37;11.60;;;8.55;;
72864;SDS011;61000;48.120;11.548;2022-11-14T04:07:24;14.52;;;9.10;;
72864;SDS011;61000;48.120;11.548;2022-11-14T04:10:09;12.30;;;7.97;;
72864;SDS011;61000;48.120;11.548;2022-11-14T04:12:55;11.13;;;8.20;;
72864;SDS011;61000;48.120;11.548;2022-11-14T04:15:41;10.80;;;8.23;;
72864;SDS011;61000;48.120;11.548;2022-11-14T04:18:26;11.63;;;8.35;;
72864;SDS011;61000;48.120;11.548;2022-11-14T04:21:12;11.23;;;8.45;;
72864;SDS011;61000;48.120;11.548;2022-11-14T04:23:59;10.48;;;7.68;;
72864;SDS011;61000;48.120;11.548;2022-11-14T04:26:44;10.10;;;8.15;;
72864;SDS011;61000;48.120;11.548;2022-11-14T04:29:30;12.45;;;8.63;;
72864;SDS011;61000;48.120;11.548;2022-11-14T04:32:15;13.35;;;9.15;;
72864;SDS011;61000;48.120;11.548;2022-11-14T04:35:01;12.68;;;9.10;;
72864;SDS011;61000;48.120;11.548;2022-11-14T04:37:46;20.65;;;10.93;;
72864;SDS011;61000;48.120;11.548;2022-11-14T04:40:33;25.40;;;13.10;;
72864;SDS011;61000;48.120;11.548;2022-11-14T04:43:19;21.35;;;11.18;;
72864;SDS011;61000;48.120;11.548;2022-11-14T04:46:05;19.95;;;11.18;;
72864;SDS011;61000;48.120;11.548;2022-11-14T04:48:50;19.98;;;11.50;;
72864;SDS011;61000;48.120;11.548;2022-11-14T04:51:35;20.42;;;11.85;;
72864;SDS011;61000;48.120;11.548;2022-11-14T04:54:21;21.33;;;11.27;;
72864;SDS011;61000;48.120;11.548;2022-11-14T04:57:08;16.52;;;10.57;;
72864;SDS011;61000;48.120;11.548;2022-11-14T04:59:53;15.13;;;9.63;;
72864;SDS011;61000;48.120;11.548;2022-11-14T05:02:39;13.73;;;9.70;;
72864;SDS011;61000;48.120;11.548;2022-11-14T05:05:24;13.25;;;9.43;;
72864;SDS011;61000;48.120;11.548;2022-11-14T05:08:10;12.35;;;8.90;;
72864;SDS011;61000;48.120;11.548;2022-11-14T05:10:55;13.07;;;9.30;;
72864;SDS011;61000;48.120;11.548;2022-11-14T05:13:42;9.65;;;7.80;;
72864;SDS011;61000;48.120;11.548;2022-11-14T05:16:28;10.68;;;8.55;;
72864;SDS011;61000;48.120;11.548;2022-11-14T05:19:14;14.68;;;8.80;;
72864;SDS011;61000;48.120;11.548;2022-11-14T05:21:59;11.10;;;9.18;;
72864;SDS011;61000;48.120;11.548;2022-11-14T05:24:44;11.30;;;8.60;;
72864;SDS011;61000;48.120;11.548;2022-11-14T05:27:30;26.10;;;9.55;;
72864;SDS011;61000;48.120;11.548;2022-11-14T05:30:17;9.80;;;7.95;;
72864;SDS011;61000;48.120;11.548;2022-11-14T05:33:02;12.45;;;8.63;;
72864;SDS011;61000;48.120;11.548;2022-11-14T05:35:48;19.08;;;8.48;;
72864;SDS011;61000;48.120;11.548;2022-11-14T05:38:33;12.93;;;7.50;;
72864;SDS011;61000;48.120;11.548;2022-11-14T05:41:19;11.55;;;8.35;;
72864;SDS011;61000;48.120;11.548;2022-11-14T05:44:05;12.60;;;7.32;;
72864;SDS011;61000;48.120;11.548;2022-11-14T05:46:51;10.85;;;7.30;;
72864;SDS011;61000;48.120;11.548;2022-11-14T05:49:37;16.15;;;6.20;;
72864;SDS011;61000;48.120;11.548;2022-11-14T05:52:22;10.35;;;7.13;;
72864;SDS011;61000;48.120;11.548;2022-11-14T05:55:08;9.45;;;7.15;;
72864;SDS011;61000;48.120;11.548;2022-11-14T05:57:56;10.35;;;7.38;;
72864;SDS011;61000;48.120;11.548;2022-11-14T06:00:41;8.90;;;6.82;;
72864;SDS011;61000;48.120;11.548;2022-11-14T06:03:30;8.15;;;6.68;;
72864;SDS011;61000;48.120;11.548;2022-11-14T06:06:17;9.07;;;6.78;;
72864;SDS011;61000;48.120;11.548;2022-11-14T06:09:04;7.20;;;6.32;;
72864;SDS011;61000;48.120;11.548;2022-11-14T06:11:49;8.50;;;6.22;;
72864;SDS011;61000;48.120;11.548;2022-11-14T06:14:35;6.95;;;5.70;;
72864;SDS011;61000;48.120;11.548;2022-11-14T06:17:20;7.35;;;6.10;;
72864;SDS011;61000;48.120;11.548;2022-11-14T06:20:08;8.13;;;5.50;;
72864;SDS011;61000;48.120;11.548;2022-11-14T06:22:55;6.60;;;5.22;;
72864;SDS011;61000;48.120;11.548;2022-11-14T06:25:41;7.68;;;5.20;;
72864;SDS011;61000;48.120;11.548;2022-11-14T06:28:26;5.82;;;5.07;;
72864;SDS011;61000;48.120;11.548;2022-11-14T06:31:12;7.00;;;5.13;;
72864;SDS011;61000;48.120;11.548;2022-11-14T06:33:57;6.13;;;5.03;;
72864;SDS011;61000;48.120;11.548;2022-11-14T06:36:44;6.40;;;5.35;;
72864;SDS011;61000;48.120;11.548;2022-11-14T06:39:30;6.22;;;5.20;;
72864;SDS011;61000;48.120;11.548;2022-11-14T06:42:15;5.95;;;4.68;;
72864;SDS011;61000;48.120;11.548;2022-11-14T06:45:01;5.55;;;4.97;;
72864;SDS011;61000;48.120;11.548;2022-11-14T06:47:46;7.45;;;4.88;;
72864;SDS011;61000;48.120;11.548;2022-11-14T06:50:32;6.97;;;4.95;;
72864;SDS011;61000;48.120;11.548;2022-11-14T06:53:19;8.80;;;5.50;;
72864;SDS011;61000;48.120;11.548;2022-11-14T06:56:05;7.15;;;4.97;;
72864;SDS011;61000;48.120;11.548;2022-11-14T06:58:51;7.40;;;5.22;;
72864;SDS011;61000;48.120;11.548;2022-11-14T07:01:37;7.00;;;6.05;;
72864;SDS011;61000;48.120;11.548;2022-11-14T07:04:22;6.82;;;5.68;;
72864;SDS011;61000;48.120;11.548;2022-11-14T07:07:08;7.38;;;5.70;;
72864;SDS011;61000;48.120;11.548;2022-11-14T07:09:54;7.57;;;5.90;;
72864;SDS011;61000;48.120;11.548;2022-11-14T07:12:41;7.10;;;5.80;;
72864;SDS011;61000;48.120;11.548;2022-11-14T07:15:26;7.28;;;5.82;;
72864;SDS011;61000;48.120;11.548;2022-11-14T07:18:12;11.25;;;6.32;;
72864;SDS011;61000;48.120;11.548;2022-11-14T07:20:58;6.68;;;5.97;;
72864;SDS011;61000;48.120;11.548;2022-11-14T07:23:45;10.70;;;7.40;;
72864;SDS011;61000;48.120;11.548;2022-11-14T07:26:32;8.85;;;6.60;;
72864;SDS011;61000;48.120;11.548;2022-11-14T07:29:17;7.65;;;6.10;;
72864;SDS011;61000;48.120;11.548;2022-11-14T07:32:03;7.47;;;6.05;;
72864;SDS011;61000;48.120;11.548;2022-11-14T07:34:49;7.78;;;6.70;;
72864;SDS011;61000;48.120;11.548;2022-11-14T07:37:34;8.98;;;6.22;;
72864;SDS011;61000;48.120;11.548;2022-11-14T07:40:20;8.50;;;5.95;;
72864;SDS011;61000;48.120;11.548;2022-11-14T07:43:06;7.13;;;6.00;;
72864;SDS011;61000;48.120;11.548;2022-11-14T07:45:52;8.05;;;6.28;;
72864;SDS011;61000;48.120;11.548;2022-11-14T07:48:38;8.55;;;6.65;;
72864;SDS011;61000;48.120;11.548;2022-11-14T07:51:23;6.97;;;6.18;;
72864;SDS011;61000;48.120;11.548;2022-11-14T07:54:09;7.82;;;6.72;;
72864;SDS011;61000;48.120;11.548;2022-11-14T07:56:56;8.85;;;7.07;;
72864;SDS011;61000;48.120;11.548;2022-11-14T07:59:42;8.65;;;7.07;;
72864;SDS011;61000;48.120;11.548;2022-11-14T08:02:28;10.13;;;6.55;;
72864;SDS011;61000;48.120;11.548;2022-11-14T08:05:13;8.80;;;7.47;;
72864;SDS011;61000;48.120;11.548;2022-11-14T08:07:59;7.78;;;6.53;;
72864;SDS011;61000;48.120;11.548;2022-11-14T08:10:44;9.85;;;7.05;;
72864;SDS011;61000;48.120;11.548;2022-11-14T08:13:30;7.43;;;6.30;;
72864;SDS011;61000;48.120;11.548;2022-11-14T08:16:18;7.93;;;6.60;;
72864;SDS011;61000;48.120;11.548;2022-11-14T08:19:03;9.95;;;6.65;;
72864;SDS011;61000;48.120;11.548;2022-11-14T08:21:49;7.60;;;6.57;;
72864;SDS011;61000;48.120;11.548;2022-11-14T08:24:35;9.02;;;7.28;;
72864;SDS011;61000;48.120;11.548;2022-11-14T08:27:20;8.60;;;6.47;;
72864;SDS011;61000;48.120;11.548;2022-11-14T08:30:06;7.50;;;6.70;;
72864;SDS011;61000;48.120;11.548;2022-11-14T08:32:54;6.93;;;6.20;;
72864;SDS011;61000;48.120;11.548;2022-11-14T08:35:39;6.90;;;6.07;;
72864;SDS011;61000;48.120;11.548;2022-11-14T08:38:24;9.50;;;6.35;;
72864;SDS011;61000;48.120;11.548;2022-11-14T08:41:10;8.80;;;6.82;;
72864;SDS011;61000;48.120;11.548;2022-11-14T08:43:55;8.25;;;7.18;;
72864;SDS011;61000;48.120;11.548;2022-11-14T08:46:41;9.20;;;6.80;;
72864;SDS011;61000;48.120;11.548;2022-11-14T08:49:28;10.48;;;7.13;;
72864;SDS011;61000;48.120;11.548;2022-11-14T08:52:14;11.13;;;7.53;;
72864;SDS011;61000;48.120;11.548;2022-11-14T08:54:59;8.07;;;7.03;;
72864;SDS011;61000;48.120;11.548;2022-11-14T08:57:45;10.18;;;6.95;;
72864;SDS011;61000;48.120;11.548;2022-11-14T09:00:31;13.65;;;6.47;;
72864;SDS011;61000;48.120;11.548;2022-11-14T09:03:16;10.43;;;7.15;;
72864;SDS011;61000;48.120;11.548;2022-11-14T09:06:03;9.23;;;6.60;;
72864;SDS011;61000;48.120;11.548;2022-11-14T09:08:49;12.02;;;7.03;;
72864;SDS011;61000;48.120;11.548;2022-11-14T09:11:34;11.02;;;8.48;;
72864;SDS011;61000;48.120;11.548;2022-11-14T09:14:19;9.43;;;7.13;;
72864;SDS011;61000;48.120;11.548;2022-11-14T09:17:05;10.00;;;7.05;;
72864;SDS011;61000;48.120;11.548;2022-11-14T09:19:50;9.20;;;7.30;;
72864;SDS011;61000;48.120;11.548;2022-11-14T09:22:38;9.07;;;7.00;;
72864;SDS011;61000;48.120;11.548;2022-11-14T09:25:23;10.82;;;7.47;;
72864;SDS011;61000;48.120;11.548;2022-11-14T09:28:10;7.25;;;6.25;;
72864;SDS011;61000;48.120;11.548;2022-11-14T09:30:58;13.57;;;7.40;;
72864;SDS011;61000;48.120;11.548;2022-11-14T09:33:44;7.28;;;6.55;;
72864;SDS011;61000;48.120;11.548;2022-11-14T09:36:30;10.10;;;8.00;;
72864;SDS011;61000;48.120;11.548;2022-11-14T09:39:17;8.38;;;6.60;;
72864;SDS011;61000;48.120;11.548;2022-11-14T09:42:05;7.70;;;6.75;;
72864;SDS011;61000;48.120;11.548;2022-11-14T09:45:08;7.80;;;6.88;;
72864;SDS011;61000;48.120;11.548;2022-11-14T09:47:59;7.97;;;5.85;;
72864;SDS011;61000;48.120;11.548;2022-11-14T09:50:50;8.80;;;6.18;;
72864;SDS011;61000;48.120;11.548;2022-11-14T09:53:45;7.72;;;6.45;;
72864;SDS011;61000;48.120;11.548;2022-11-14T09:56:37;7.32;;;6.57;;
72864;SDS011;61000;48.120;11.548;2022-11-14T09:59:22;8.52;;;7.10;;
72864;SDS011;61000;48.120;11.548;2022-11-14T10:02:13;14.30;;;7.00;;
72864;SDS011;61000;48.120;11.548;2022-11-14T10:05:15;9.52;;;7.10;;
72864;SDS011;61000;48.120;11.548;2022-11-14T10:08:12;7.75;;;6.45;;
72864;SDS011;61000;48.120;11.548;2022-11-14T10:11:21;9.63;;;6.72;;
72864;SDS011;61000;48.120;11.548;2022-11-14T10:14:27;9.27;;;6.25;;
72864;SDS011;61000;48.120;11.548;2022-11-14T10:17:38;10.88;;;6.90;;
72864;SDS011;61000;48.120;11.548;2022-11-14T10:20:49;14.30;;;7.60;;
72864;SDS011;61000;48.120;11.548;2022-11-14T10:23:39;12.90;;;6.95;;
72864;SDS011;61000;48.120;11.548;2022-11-14T10:26:31;16.30;;;9.13;;
72864;SDS011;61000;48.120;11.548;2022-11-14T10:29:28;12.90;;;8.55;;
72864;SDS011;61000;48.120;11.548;2022-11-14T10:32:36;15.98;;;8.35;;
72864;SDS011;61000;48.120;11.548;2022-11-14T10:35:34;9.25;;;8.05;;
72864;SDS011;61000;48.120;11.548;2022-11-14T10:38:24;14.63;;;9.38;;
72864;SDS011;61000;48.120;11.548;2022-11-14T10:41:13;13.75;;;8.90;;
72864;SDS011;61000;48.120;11.548;2022-11-14T10:43:58;12.88;;;9.45;;
72864;SDS011;61000;48.120;11.548;2022-11-14T10:46:47;18.48;;;9.27;;
72864;SDS011;61000;48.120;11.548;2022-11-14T10:49:34;30.58;;;10.88;;
72864;SDS011;61000;48.120;11.548;2022-11-14T10:52:21;14.15;;;10.10;;
72864;SDS011;61000;48.120;11.548;2022-11-14T10:55:15;17.83;;;10.13;;
72864;SDS011;61000;48.120;11.548;2022-11-14T10:58:06;14.85;;;10.20;;
72864;SDS011;61000;48.120;11.548;2022-11-14T11:00:53;15.95;;;9.77;;
72864;SDS011;61000;48.120;11.548;2022-11-14T11:03:41;14.35;;;10.02;;
72864;SDS011;61000;48.120;11.548;2022-11-14T11:06:27;17.02;;;10.85;;
72864;SDS011;61000;48.120;11.548;2022-11-14T11:09:13;13.90;;;10.82;;
72864;SDS011;61000;48.120;11.548;2022-11-14T11:12:19;16.27;;;12.00;;
72864;SDS011;61000;48.120;11.548;2022-11-14T11:15:07;16.25;;;11.95;;
72864;SDS011;61000;48.120;11.548;2022-11-14T11:17:59;16.92;;;11.18;;
72864;SDS011;61000;48.120;11.548;2022-11-14T11:20:47;17.02;;;11.43;;
72864;SDS011;61000;48.120;11.548;2022-11-14T11:23:47;17.40;;;12.57;;
72864;SDS011;61000;48.120;11.548;2022-11-14T11:26:33;15.80;;;11.55;;
72864;SDS011;61000;48.120;11.548;2022-11-14T11:29:19;19.58;;;11.88;;
72864;SDS011;61000;48.120;11.548;2022-11-14T11:32:07;16.85;;;11.65;;
72864;SDS011;61000;48.120;11.548;2022-11-14T11:34:53;16.60;;;12.52;;
72864;SDS011;61000;48.120;11.548;2022-11-14T11:37:42;17.90;;;13.50;;
72864;SDS011;61000;48.120;11.548;2022-11-14T11:40:31;16.08;;;11.80;;
72864;SDS011;61000;48.120;11.548;2022-11-14T11:43:19;17.02;;;12.05;;
72864;SDS011;61000;48.120;11.548;2022-11-14T11:46:14;14.00;;;10.43;;
72864;SDS011;61000;48.120;11.548;2022-11-14T11:49:05;16.13;;;10.77;;
72864;SDS011;61000;48.120;11.548;2022-11-14T11:52:00;12.55;;;10.00;;
72864;SDS011;61000;48.120;11.548;2022-11-14T11:54:52;13.85;;;11.20;;
72864;SDS011;61000;48.120;11.548;2022-11-14T11:57:44;16.73;;;10.45;;
72864;SDS011;61000;48.120;11.548;2022-11-14T12:00:32;12.15;;;9.85;;
72864;SDS011;61000;48.120;11.548;2022-11-14T12:03:18;12.75;;;10.02;;
72864;SDS011;61000;48.120;11.548;2022-11-14T12:06:06;11.75;;;8.20;;
72864;SDS011;61000;48.120;11.548;2022-11-14T12:09:00;12.23;;;8.80;;
72864;SDS011;61000;48.120;11.548;2022-11-14T12:11:56;10.50;;;7.65;;
72864;SDS011;61000;48.120;11.548;2022-11-14T12:14:49;9.68;;;7.32;;
72864;SDS011;61000;48.120;11.548;2022-11-14T12:21:09;8.70;;;7.50;;
72864;SDS011;61000;48.120;11.548;2022-11-14T12:30:33;9.05;;;6.85;;
72864;SDS011;61000;48.120;11.548;2022-11-14T12:33:22;11.20;;;6.57;;
72864;SDS011;61000;48.120;11.548;2022-11-14T12:36:10;9.55;;;7.68;;
72864;SDS011;61000;48.120;11.548;2022-11-14T12:38:56;9.65;;;6.88;;
72864;SDS011;61000;48.120;11.548;2022-11-14T12:41:43;10.60;;;6.70;;
72864;SDS011;61000;48.120;11.548;2022-11-14T12:44:33;8.77;;;5.95;;
72864;SDS011;61000;48.120;11.548;2022-11-14T12:47:22;7.93;;;6.07;;
72864;SDS011;61000;48.120;11.548;2022-11-14T12:59:46;7.18;;;6.10;;
72864;SDS011;61000;48.120;11.548;2022-11-14T13:02:47;9.07;;;6.38;;
72864;SDS011;61000;48.120;11.548;2022-11-14T13:05:51;7.32;;;6.47;;
72864;SDS011;61000;48.120;11.548;2022-11-14T13:11:50;7.03;;;6.32;;
72864;SDS011;61000;48.120;11.548;2022-11-14T13:14:54;7.38;;;6.03;;
72864;SDS011;61000;48.120;11.548;2022-11-14T13:18:02;7.47;;;6.57;;
72864;SDS011;61000;48.120;11.548;2022-11-14T13:21:16;8.10;;;6.47;;
72864;SDS011;61000;48.120;11.548;2022-11-14T13:24:22;7.60;;;5.90;;
72864;SDS011;61000;48.120;11.548;2022-11-14T13:27:24;6.97;;;5.85;;
72864;SDS011;61000;48.120;11.548;2022-11-14T13:30:11;5.43;;;4.95;;
72864;SDS011;61000;48.120;11.548;2022-11-14T13:32:56;6.32;;;5.70;;
72864;SDS011;61000;48.120;11.548;2022-11-14T13:35:50;5.68;;;5.13;;
72864;SDS011;61000;48.120;11.548;2022-11-14T13:42:06;6.15;;;5.05;;
72864;SDS011;61000;48.120;11.548;2022-11-14T13:45:11;7.40;;;5.75;;
72864;SDS011;61000;48.120;11.548;2022-11-14T13:48:24;5.95;;;5.30;;
72864;SDS011;61000;48.120;11.548;2022-11-14T13:51:32;5.80;;;5.20;;
72864;SDS011;61000;48.120;11.548;2022-11-14T13:54:18;5.95;;;5.35;;
72864;SDS011;61000;48.120;11.548;2022-11-14T13:57:07;7.72;;;5.28;;
72864;SDS011;61000;48.120;11.548;2022-11-14T14:00:04;8.05;;;6.38;;
72864;SDS011;61000;48.120;11.548;2022-11-14T14:06:09;8.55;;;5.72;;
72864;SDS011;61000;48.120;11.548;2022-11-14T14:09:07;9.00;;;5.90;;
72864;SDS011;61000;48.120;11.548;2022-11-14T14:12:13;6.43;;;5.50;;
72864;SDS011;61000;48.120;11.548;2022-11-14T14:15:13;9.25;;;5.97;;
72864;SDS011;61000;48.120;11.548;2022-11-14T14:18:06;7.63;;;5.68;;
72864;SDS011;61000;48.120;11.548;2022-11-14T14:21:01;11.45;;;5.78;;
72864;SDS011;61000;48.120;11.548;2022-11-14T14:23:58;6.70;;;5.68;;
72864;SDS011;61000;48.120;11.548;2022-11-14T14:26:58;7.95;;;5.88;;
72864;SDS011;61000;48.120;11.548;2022-11-14T14:29:51;8.55;;;5.38;;
72864;SDS011;61000;48.120;11.548;2022-11-14T14:35:56;7.65;;;6.45;;
72864;SDS011;61000;48.120;11.548;2022-11-14T14:38:41;9.70;;;5.90;;
72864;SDS011;61000;48.120;11.548;2022-11-14T14:41:30;8.35;;;6.22;;
72864;SDS011;61000;48.120;11.548;2022-11-14T14:44:20;6.38;;;5.50;;
72864;SDS011;61000;48.120;11.548;2022-11-14T14:47:15;8.50;;;5.85;;
72864;SDS011;61000;48.120;11.548;2022-11-14T14:50:01;6.20;;;5.43;;
72864;SDS011;61000;48.120;11.548;2022-11-14T14:52:54;8.90;;;6.72;;
72864;SDS011;61000;48.120;11.548;2022-11-14T14:55:40;11.63;;;6.80;;
72864;SDS011;61000;48.120;11.548;2022-11-14T14:58:26;9.80;;;6.38;;
72864;SDS011;61000;48.120;11.548;2022-11-14T15:01:14;5.80;;;5.20;;
72864;SDS011;61000;48.120;11.548;2022-11-14T15:04:02;10.10;;;5.93;;
72864;SDS011;61000;48.120;11.548;2022-11-14T15:06:50;9.45;;;5.93;;
72864;SDS011;61000;48.120;11.548;2022-11-14T15:09:38;8.00;;;6.18;;
72864;SDS011;61000;48.120;11.548;2022-11-14T15:12:35;10.68;;;7.25;;
72864;SDS011;61000;48.120;11.548;2022-11-14T15:15:21;14.90;;;8.07;;
72864;SDS011;61000;48.120;11.548;2022-11-14T15:18:15;10.10;;;6.97;;
72864;SDS011;61000;48.120;11.548;2022-11-14T15:21:07;9.25;;;6.60;;
72864;SDS011;61000;48.120;11.548;2022-11-14T15:23:57;11.45;;;6.53;;
72864;SDS011;61000;48.120;11.548;2022-11-14T15:26:45;17.58;;;9.10;;
72864;SDS011;61000;48.120;11.548;2022-11-14T15:29:32;9.18;;;7.38;;
72864;SDS011;61000;48.120;11.548;2022-11-14T15:32:18;16.95;;;8.07;;
72864;SDS011;61000;48.120;11.548;2022-11-14T15:35:07;17.63;;;8.30;;
72864;SDS011;61000;48.120;11.548;2022-11-14T15:38:04;13.30;;;9.02;;
72864;SDS011;61000;48.120;11.548;2022-11-14T15:44:01;9.40;;;7.78;;
72864;SDS011;61000;48.120;11.548;2022-11-14T15:46:47;13.35;;;8.27;;
72864;SDS011;61000;48.120;11.548;2022-11-14T15:49:33;13.63;;;8.60;;
72864;SDS011;61000;48.120;11.548;2022-11-14T15:52:22;11.48;;;8.77;;
72864;SDS011;61000;48.120;11.548;2022-11-14T15:55:11;14.88;;;9.43;;
72864;SDS011;61000;48.120;11.548;2022-11-14T15:57:58;13.90;;;8.15;;
72864;SDS011;61000;48.120;11.548;2022-11-14T16:00:44;9.50;;;7.97;;
72864;SDS011;61000;48.120;11.548;2022-11-14T16:03:31;12.05;;;8.75;;
72864;SDS011;61000;48.120;11.548;2022-11-14T16:06:17;10.88;;;7.97;;
72864;SDS011;61000;48.120;11.548;2022-11-14T16:09:03;14.13;;;8.77;;
72864;SDS011;61000;48.120;11.548;2022-11-14T16:11:49;13.52;;;8.30;;
72864;SDS011;61000;48.120;11.548;2022-11-14T16:14:34;11.60;;;8.05;;
72864;SDS011;61000;48.120;11.548;2022-11-14T16:17:20;9.60;;;7.97;;
72864;SDS011;61000;48.120;11.548;2022-11-14T16:20:06;14.68;;;9.68;;
72864;SDS011;61000;48.120;11.548;2022-11-14T16:22:58;10.43;;;7.65;;
72864;SDS011;61000;48.120;11.548;2022-11-14T16:25:45;15.13;;;9.05;;
72864;SDS011;61000;48.120;11.548;2022-11-14T16:28:31;14.68;;;9.35;;
72864;SDS011;61000;48.120;11.548;2022-11-14T16:31:17;11.68;;;8.00;;
72864;SDS011;61000;48.120;11.548;2022-11-14T16:34:03;16.02;;;8.13;;
72864;SDS011;61000;48.120;11.548;2022-11-14T16:36:48;11.25;;;9.15;;
72864;SDS011;61000;48.120;11.548;2022-11-14T16:39:40;12.77;;;8.20;;
72864;SDS011;61000;48.120;11.548;2022-11-14T16:42:27;11.07;;;7.90;;
72864;SDS011;61000;48.120;11.548;2022-11-14T16:45:13;11.05;;;8.57;;
72864;SDS011;61000;48.120;11.548;2022-11-14T16:47:59;10.95;;;8.02;;
72864;SDS011;61000;48.120;11.548;2022-11-14T16:50:44;15.15;;;9.07;;
72864;SDS011;61000;48.120;11.548;2022-11-14T16:53:30;9.10;;;7.65;;
72864;SDS011;61000;48.120;11.548;2022-11-14T16:56:15;11.38;;;7.75;;
72864;SDS011;61000;48.120;11.548;2022-11-14T16:59:02;10.98;;;7.93;;
72864;SDS011;61000;48.120;11.548;2022-11-14T17:01:47;11.73;;;8.57;;
72864;SDS011;61000;48.120;11.548;2022-11-14T17:04:33;10.63;;;8.45;;
72864;SDS011;61000;48.120;11.548;2022-11-14T17:07:18;12.35;;;7.30;;
72864;SDS011;61000;48.120;11.548;2022-11-14T17:10:04;10.90;;;7.43;;
72864;SDS011;61000;48.120;11.548;2022-11-14T17:12:50;10.10;;;7.45;;